Time;durP1;ratioP1;P1;durP2;ratioP2;P2;SDS_P1;SDS_P2;PMS_P1;PMS_P2;Temp;Humidity;BMP_temperature;BMP_pressure;BME280_temperature;BME280_humidity;BME280_pressure;Samples;Min_cycle;Max_cycle;Signal;HPM_P1;HPM_P2
2022/02/24 00:00:21;;;;;;;8.03;2.50;;;5.30;99.90;;;;;;5097242;28;20206;-82
2022/02/24 00:02:49;;;;;;;5.07;2.40;;;5.40;99.90;;;;;;5027264;28;20664;-82
2022/02/24 00:05:17;;;;;;;7.63;2.57;;;5.20;99.90;;;;;;5007074;28;20262;-82
2022/02/24 00:07:44;;;;;;;5.00;2.60;;;4.90;99.90;;;;;;5025096;28;20229;-82
2022/02/24 00:10:13;;;;;;;4.13;2.60;;;5.00;99.90;;;;;;5010327;28;20251;-81
2022/02/24 00:12:41;;;;;;;3.57;2.20;;;5.10;99.90;;;;;;5006371;28;20205;-74
2022/02/24 00:15:08;;;;;;;5.47;2.60;;;5.20;99.90;;;;;;5020969;28;20594;-77
2022/02/24 00:17:35;;;;;;;7.33;2.43;;;5.30;99.90;;;;;;5004088;28;20694;-78
2022/02/24 00:20:02;;;;;;;3.73;2.37;;;5.20;99.90;;;;;;5045504;28;20214;-78
2022/02/24 00:22:31;;;;;;;4.17;2.33;;;5.30;99.90;;;;;;5064348;28;20241;-77
2022/02/24 00:24:58;;;;;;;4.57;2.60;;;5.30;99.90;;;;;;5067893;28;20667;-78
2022/02/24 00:27:25;;;;;;;4.93;2.17;;;5.30;99.90;;;;;;5038948;28;20233;-77
2022/02/24 00:29:51;;;;;;;3.27;2.13;;;5.30;99.90;;;;;;5004945;28;20205;-77
2022/02/24 00:32:18;;;;;;;8.83;2.57;;;5.20;99.90;;;;;;5028371;28;20217;-77
2022/02/24 00:34:46;;;;;;;3.70;2.00;;;5.20;99.90;;;;;;5013467;28;20221;-77
2022/02/24 00:37:15;;;;;;;4.57;2.47;;;5.20;99.90;;;;;;5021847;28;20289;-77
2022/02/24 00:39:44;;;;;;;5.83;2.70;;;5.20;99.90;;;;;;5016196;28;20213;-77
2022/02/24 00:42:11;;;;;;;4.77;2.33;;;5.10;99.90;;;;;;5015979;28;20219;-76
2022/02/24 00:44:38;;;;;;;4.97;2.50;;;5.20;99.90;;;;;;5022093;28;20233;-78
2022/02/24 00:47:05;;;;;;;4.27;2.57;;;5.10;99.90;;;;;;5080907;28;20241;-77
2022/02/24 00:49:32;;;;;;;5.13;2.30;;;5.10;99.90;;;;;;5006191;28;20778;-83
2022/02/24 00:51:59;;;;;;;4.00;2.40;;;4.90;99.90;;;;;;5016334;28;20225;-85
2022/02/24 00:54:25;;;;;;;4.03;2.10;;;4.90;99.90;;;;;;5071094;28;20288;-84
2022/02/24 00:56:54;;;;;;;6.47;2.60;;;5.00;99.90;;;;;;5018622;28;20709;-84
2022/02/24 00:59:20;;;;;;;2.90;2.03;;;5.00;99.90;;;;;;5006655;28;20218;-84
2022/02/24 01:01:48;;;;;;;2.97;2.13;;;5.00;99.90;;;;;;5012905;28;20210;-85
2022/02/24 01:04:15;;;;;;;6.60;2.43;;;5.00;99.90;;;;;;5016378;28;20205;-85
2022/02/24 01:06:42;;;;;;;5.40;2.50;;;5.00;99.90;;;;;;5005625;28;20282;-77
2022/02/24 01:09:08;;;;;;;4.57;2.40;;;5.00;99.90;;;;;;5004570;28;20631;-77
2022/02/24 01:11:35;;;;;;;10.37;2.63;;;4.80;99.90;;;;;;5001177;28;20218;-76
2022/02/24 01:14:03;;;;;;;7.27;2.87;;;4.90;99.90;;;;;;5015006;28;20214;-79
2022/02/24 01:16:30;;;;;;;5.63;2.20;;;4.90;99.90;;;;;;5013807;28;20664;-78
2022/02/24 01:18:57;;;;;;;4.27;2.33;;;4.90;99.90;;;;;;5011358;28;20345;-78
2022/02/24 01:21:23;;;;;;;4.77;2.20;;;4.90;99.90;;;;;;5004901;28;20214;-78
2022/02/24 01:23:50;;;;;;;3.90;2.00;;;4.90;99.90;;;;;;5088324;28;20267;-78
2022/02/24 01:26:17;;;;;;;5.10;2.33;;;4.90;99.90;;;;;;5023156;28;20202;-81
2022/02/24 01:28:44;;;;;;;4.00;2.30;;;4.90;99.90;;;;;;5004036;28;20210;-80
2022/02/24 01:31:13;;;;;;;5.27;2.10;;;4.90;99.90;;;;;;4997154;28;20210;-81
2022/02/24 01:33:40;;;;;;;5.30;2.37;;;4.90;99.90;;;;;;5007431;28;20240;-81
2022/02/24 01:36:07;;;;;;;5.90;3.10;;;4.90;99.90;;;;;;5003562;28;20209;-82
2022/02/24 01:38:33;;;;;;;3.60;2.03;;;4.90;99.90;;;;;;5004616;28;20282;-82
2022/02/24 01:41:00;;;;;;;6.03;2.87;;;4.70;99.90;;;;;;5004431;28;20209;-81
2022/02/24 01:43:27;;;;;;;4.83;2.40;;;4.70;99.90;;;;;;5042383;28;20291;-82
2022/02/24 01:45:53;;;;;;;6.23;2.57;;;4.70;99.90;;;;;;5066591;28;20626;-80
2022/02/24 01:48:21;;;;;;;3.50;2.17;;;4.70;99.90;;;;;;5004027;28;20675;-80
2022/02/24 01:50:48;;;;;;;4.97;2.73;;;4.70;99.90;;;;;;5009408;28;20679;-80
2022/02/24 01:53:15;;;;;;;5.63;2.33;;;4.70;99.90;;;;;;5004310;28;20290;-79
2022/02/24 01:55:42;;;;;;;4.07;2.23;;;4.70;99.90;;;;;;5007479;28;20244;-80
2022/02/24 01:58:10;;;;;;;5.87;2.50;;;4.70;99.90;;;;;;5010940;28;20736;-80
2022/02/24 02:00:38;;;;;;;5.40;2.70;;;4.70;99.90;;;;;;5006531;28;20252;-80
2022/02/24 02:03:04;;;;;;;3.17;2.53;;;4.70;99.90;;;;;;5010560;28;20341;-77
2022/02/24 02:05:32;;;;;;;6.03;2.97;;;4.70;99.90;;;;;;5006998;28;20274;-77
2022/02/24 02:07:59;;;;;;;4.07;2.57;;;4.70;99.90;;;;;;5013155;28;20237;-77
2022/02/24 02:10:26;;;;;;;3.23;2.13;;;4.70;99.90;;;;;;5012189;28;20217;-77
2022/02/24 02:12:54;;;;;;;5.93;2.90;;;4.70;99.90;;;;;;5013149;28;20604;-77
2022/02/24 02:15:21;;;;;;;2.70;2.33;;;4.70;99.90;;;;;;5006586;28;20243;-78
2022/02/24 02:17:48;;;;;;;4.77;2.67;;;4.60;99.90;;;;;;5017002;28;20266;-76
2022/02/24 02:20:16;;;;;;;2.67;2.30;;;4.60;99.90;;;;;;5012336;28;20214;-77
2022/02/24 02:22:44;;;;;;;7.10;2.70;;;4.60;99.90;;;;;;5006733;28;20210;-79
2022/02/24 02:25:13;;;;;;;5.93;2.77;;;4.50;99.90;;;;;;5064343;28;20276;-79
2022/02/24 02:27:40;;;;;;;4.57;2.27;;;4.50;99.90;;;;;;5059979;28;20318;-78
2022/02/24 02:30:09;;;;;;;6.83;2.50;;;4.50;99.90;;;;;;5011853;28;20255;-79
2022/02/24 02:32:36;;;;;;;4.77;2.50;;;4.50;99.90;;;;;;5012537;28;20214;-80
2022/02/24 02:35:03;;;;;;;7.23;2.30;;;4.50;99.90;;;;;;5006320;28;20262;-80
2022/02/24 02:37:29;;;;;;;5.23;2.83;;;4.50;99.90;;;;;;5001835;28;20217;-80
2022/02/24 02:39:57;;;;;;;8.00;2.70;;;4.50;99.90;;;;;;5003725;28;20739;-80
2022/02/24 02:42:24;;;;;;;5.53;2.40;;;4.40;99.90;;;;;;5006072;28;20209;-80
2022/02/24 02:44:51;;;;;;;5.13;2.50;;;4.40;99.90;;;;;;5011611;28;20233;-80
2022/02/24 02:47:18;;;;;;;6.80;2.77;;;4.40;99.90;;;;;;5011802;28;20233;-79
2022/02/24 02:49:45;;;;;;;3.57;2.20;;;4.40;99.90;;;;;;5015655;28;20218;-79
2022/02/24 02:52:11;;;;;;;3.37;2.57;;;4.40;99.90;;;;;;5007942;28;20209;-79
2022/02/24 02:54:38;;;;;;;5.33;2.60;;;4.40;99.90;;;;;;5019241;28;20244;-79
2022/02/24 02:57:06;;;;;;;4.40;2.37;;;4.40;99.90;;;;;;5004905;28;20228;-78
2022/02/24 02:59:33;;;;;;;4.57;2.17;;;4.50;99.90;;;;;;5012352;28;20213;-78
2022/02/24 03:02:00;;;;;;;4.10;2.20;;;4.40;99.90;;;;;;5005137;28;20205;-77
2022/02/24 03:04:26;;;;;;;4.13;2.50;;;4.40;99.90;;;;;;5010375;28;20266;-77
2022/02/24 03:06:53;;;;;;;5.60;2.50;;;4.40;99.90;;;;;;5006847;28;20229;-78
2022/02/24 03:09:20;;;;;;;5.90;2.67;;;4.40;99.90;;;;;;5004093;28;20213;-77
2022/02/24 03:11:47;;;;;;;5.20;2.47;;;4.40;99.90;;;;;;5018026;28;20244;-79
2022/02/24 03:14:14;;;;;;;4.53;2.20;;;4.40;99.90;;;;;;5019004;28;20255;-80
2022/02/24 03:16:41;;;;;;;3.83;2.53;;;4.50;99.90;;;;;;5005908;28;20302;-80
2022/02/24 03:19:11;;;;;;;5.50;2.50;;;4.50;99.90;;;;;;5017155;28;20275;-76
2022/02/24 03:21:38;;;;;;;3.40;2.20;;;4.40;99.90;;;;;;5014856;28;20709;-76
2022/02/24 03:24:05;;;;;;;3.50;2.50;;;4.40;99.90;;;;;;5006594;28;20210;-77
2022/02/24 03:26:31;;;;;;;4.07;2.20;;;4.40;99.90;;;;;;5016271;28;20218;-77
2022/02/24 03:28:58;;;;;;;3.53;2.20;;;4.40;99.90;;;;;;5006003;28;20233;-77
2022/02/24 03:31:26;;;;;;;4.40;2.17;;;4.40;99.90;;;;;;5008321;28;20262;-76
2022/02/24 03:33:53;;;;;;;4.20;2.40;;;4.40;99.90;;;;;;5006356;28;20259;-76
2022/02/24 03:36:20;;;;;;;4.23;2.27;;;4.40;99.90;;;;;;5011465;28;20672;-77
2022/02/24 03:38:46;;;;;;;6.40;2.80;;;4.30;99.90;;;;;;5011692;28;20214;-77
2022/02/24 03:41:13;;;;;;;5.30;2.30;;;4.40;99.90;;;;;;5006234;28;20210;-77
2022/02/24 03:43:40;;;;;;;5.60;2.53;;;4.40;99.90;;;;;;5021651;28;20275;-77
2022/02/24 03:46:06;;;;;;;8.13;2.13;;;4.40;99.90;;;;;;5087447;28;20690;-76
2022/02/24 03:48:34;;;;;;;3.93;2.20;;;4.40;99.90;;;;;;5010243;28;20241;-76
2022/02/24 03:51:01;;;;;;;3.97;2.37;;;4.40;99.90;;;;;;5011149;28;20209;-77
2022/02/24 03:53:28;;;;;;;5.90;2.30;;;4.40;99.90;;;;;;5014213;28;20749;-76
2022/02/24 03:55:54;;;;;;;5.80;2.43;;;4.40;99.90;;;;;;5006269;28;20229;-76
2022/02/24 03:58:21;;;;;;;4.67;2.10;;;4.40;99.90;;;;;;5012458;28;20259;-76
2022/02/24 04:00:47;;;;;;;3.63;1.97;;;4.30;99.90;;;;;;5004797;28;20266;-77
2022/02/24 04:03:14;;;;;;;3.40;2.00;;;4.30;99.90;;;;;;5005429;28;20218;-78
2022/02/24 04:05:42;;;;;;;3.50;2.27;;;4.40;99.90;;;;;;5012022;28;20254;-78
2022/02/24 04:08:09;;;;;;;7.17;2.40;;;4.40;99.90;;;;;;5011806;28;20290;-80
2022/02/24 04:10:35;;;;;;;5.47;2.27;;;4.40;99.90;;;;;;5006969;28;20291;-80
2022/02/24 04:13:02;;;;;;;5.17;2.27;;;4.40;99.90;;;;;;5006485;28;20274;-81
2022/02/24 04:15:28;;;;;;;4.17;2.23;;;4.30;99.90;;;;;;5007240;28;20220;-81
2022/02/24 04:17:55;;;;;;;4.10;2.27;;;4.40;99.90;;;;;;5017199;28;20255;-80
2022/02/24 04:20:22;;;;;;;3.93;2.47;;;4.30;99.90;;;;;;5014415;28;20748;-80
2022/02/24 04:22:50;;;;;;;6.13;2.07;;;4.30;99.90;;;;;;5005488;28;20584;-79
2022/02/24 04:25:16;;;;;;;5.23;2.40;;;4.30;99.90;;;;;;5008740;28;20210;-80
2022/02/24 04:27:47;;;;;;;3.13;1.83;;;4.30;99.90;;;;;;5005542;28;20312;-80
2022/02/24 04:30:14;;;;;;;3.77;2.27;;;4.30;99.90;;;;;;5009339;28;20791;-79
2022/02/24 04:32:41;;;;;;;4.57;2.27;;;4.30;99.90;;;;;;5003717;28;20625;-80
2022/02/24 04:35:09;;;;;;;4.00;2.20;;;4.30;99.90;;;;;;5018558;28;20230;-81
2022/02/24 04:37:35;;;;;;;3.80;2.13;;;4.20;99.90;;;;;;5023889;27;20257;-81
2022/02/24 04:40:05;;;;;;;5.30;2.23;;;4.10;99.90;;;;;;5004102;28;20498;-81
2022/02/24 04:42:32;;;;;;;6.03;2.10;;;3.90;99.90;;;;;;5012614;28;20576;-80
2022/02/24 04:44:59;;;;;;;4.70;2.20;;;3.90;99.90;;;;;;5011734;28;20233;-80
2022/02/24 04:47:25;;;;;;;2.17;1.97;;;4.00;99.90;;;;;;5009408;28;20532;-81
2022/02/24 04:49:52;;;;;;;3.43;2.00;;;4.10;99.90;;;;;;5021164;28;20591;-80
2022/02/24 04:52:19;;;;;;;5.07;2.10;;;4.20;99.90;;;;;;5000831;28;20214;-80
2022/02/24 04:54:46;;;;;;;2.93;1.87;;;4.20;99.90;;;;;;5013197;28;20290;-79
2022/02/24 04:57:14;;;;;;;4.00;2.10;;;4.20;99.90;;;;;;5005201;28;20221;-80
2022/02/24 04:59:41;;;;;;;2.23;1.73;;;4.30;99.90;;;;;;5008027;28;20206;-80
2022/02/24 05:02:08;;;;;;;5.27;2.07;;;4.30;99.90;;;;;;5011426;28;20274;-81
2022/02/24 05:04:34;;;;;;;2.80;1.97;;;4.30;99.90;;;;;;5008828;28;20271;-80
2022/02/24 05:07:01;;;;;;;4.10;2.53;;;4.30;99.90;;;;;;5014383;28;20235;-80
2022/02/24 05:09:28;;;;;;;3.30;2.03;;;4.30;99.90;;;;;;5002534;28;20237;-81
2022/02/24 05:11:54;;;;;;;3.30;2.23;;;4.30;99.90;;;;;;5013342;28;20607;-80
2022/02/24 05:14:22;;;;;;;3.20;1.70;;;4.30;99.90;;;;;;5000893;28;20220;-80
2022/02/24 05:16:49;;;;;;;3.00;2.00;;;4.10;99.90;;;;;;5007401;28;20713;-80
2022/02/24 05:19:16;;;;;;;3.73;1.97;;;4.10;99.90;;;;;;5010427;28;20217;-81
2022/02/24 05:21:42;;;;;;;3.20;2.00;;;4.10;99.90;;;;;;5004070;28;20210;-79
2022/02/24 05:24:09;;;;;;;3.40;2.27;;;4.10;99.90;;;;;;5014886;28;20629;-79
2022/02/24 05:26:37;;;;;;;3.93;2.20;;;4.10;99.90;;;;;;5001320;28;20206;-80
2022/02/24 05:29:04;;;;;;;2.93;1.73;;;4.20;99.90;;;;;;5007679;28;20340;-80
2022/02/24 05:31:32;;;;;;;3.57;1.80;;;4.20;99.90;;;;;;5007532;28;20274;-80
2022/02/24 05:33:59;;;;;;;2.87;1.70;;;4.20;99.90;;;;;;5001724;28;20263;-80
2022/02/24 05:36:25;;;;;;;3.57;2.23;;;4.30;99.90;;;;;;5007865;28;20217;-80
2022/02/24 05:38:54;;;;;;;2.70;2.00;;;4.10;99.90;;;;;;5009290;28;20792;-80
2022/02/24 05:41:21;;;;;;;2.07;1.70;;;4.30;99.90;;;;;;5039284;28;20206;-80
2022/02/24 05:43:50;;;;;;;4.87;1.73;;;4.30;99.90;;;;;;5003819;28;20843;-80
2022/02/24 05:46:16;;;;;;;3.30;1.80;;;4.20;99.90;;;;;;5003385;28;20297;-80
2022/02/24 05:48:45;;;;;;;3.07;2.17;;;4.30;99.90;;;;;;5013225;28;20590;-79
2022/02/24 05:51:12;;;;;;;6.50;2.30;;;4.30;99.90;;;;;;5012789;28;20220;-80
2022/02/24 05:53:39;;;;;;;4.40;2.07;;;4.30;99.90;;;;;;5004972;28;20241;-80
2022/02/24 05:56:06;;;;;;;5.23;1.77;;;4.40;99.90;;;;;;5005330;28;20646;-80
2022/02/24 05:58:33;;;;;;;4.13;2.10;;;4.30;99.90;;;;;;5010355;28;20350;-79
2022/02/24 06:00:59;;;;;;;4.10;2.13;;;4.30;99.90;;;;;;5011740;28;20725;-80
2022/02/24 06:03:26;;;;;;;3.70;2.00;;;4.30;99.90;;;;;;5007994;28;20233;-80
2022/02/24 06:05:56;;;;;;;3.27;1.93;;;4.40;99.90;;;;;;5007601;28;20202;-80
2022/02/24 06:08:23;;;;;;;2.17;1.70;;;4.40;99.90;;;;;;5014422;28;20248;-80
2022/02/24 06:10:50;;;;;;;4.17;1.93;;;4.40;99.90;;;;;;5006159;28;20201;-80
2022/02/24 06:13:17;;;;;;;3.57;2.17;;;4.40;99.90;;;;;;5009721;28;20212;-79
2022/02/24 06:15:43;;;;;;;3.77;1.83;;;4.40;99.90;;;;;;5007652;28;20629;-80
2022/02/24 06:18:11;;;;;;;4.60;2.10;;;4.40;99.90;;;;;;5005058;28;20884;-81
2022/02/24 06:20:39;;;;;;;3.80;1.87;;;4.30;99.90;;;;;;5004883;28;20755;-80
2022/02/24 06:23:06;;;;;;;2.87;1.97;;;4.40;99.90;;;;;;4996788;28;20673;-80
2022/02/24 06:25:33;;;;;;;2.27;1.80;;;4.40;99.90;;;;;;5012998;28;20217;-80
2022/02/24 06:28:00;;;;;;;8.00;2.50;;;4.40;99.90;;;;;;5008602;28;20271;-82
2022/02/24 06:30:27;;;;;;;4.47;2.10;;;4.50;99.90;;;;;;5015120;28;20210;-81
2022/02/24 06:32:54;;;;;;;3.87;2.07;;;4.40;99.90;;;;;;5013206;28;20218;-80
2022/02/24 06:35:20;;;;;;;2.30;2.00;;;4.40;99.90;;;;;;5005203;28;20680;-80
2022/02/24 06:37:47;;;;;;;4.00;2.20;;;4.50;99.90;;;;;;5014878;28;20216;-80
2022/02/24 06:40:16;;;;;;;2.00;1.67;;;4.50;99.90;;;;;;5000889;28;20270;-80
2022/02/24 06:42:42;;;;;;;3.13;1.80;;;4.50;99.90;;;;;;5013742;28;20394;-80
2022/02/24 06:45:10;;;;;;;2.47;1.73;;;4.60;99.90;;;;;;5003068;28;20214;-80
2022/02/24 06:47:36;;;;;;;2.43;2.10;;;4.50;99.90;;;;;;5019053;28;20337;-80
2022/02/24 06:50:04;;;;;;;4.33;1.93;;;4.50;99.90;;;;;;5013938;28;20244;-80
2022/02/24 06:52:31;;;;;;;3.93;2.10;;;4.60;99.90;;;;;;5016387;28;20744;-80
2022/02/24 06:54:58;;;;;;;3.60;2.00;;;4.60;99.90;;;;;;5008898;28;20667;-80
2022/02/24 06:57:26;;;;;;;2.03;1.80;;;4.60;99.90;;;;;;5029281;28;20236;-81
2022/02/24 06:59:53;;;;;;;3.13;2.00;;;4.60;99.90;;;;;;5012527;28;20235;-81
2022/02/24 07:02:20;;;;;;;2.20;1.80;;;4.60;99.90;;;;;;5007159;28;20217;-80
2022/02/24 07:04:47;;;;;;;3.70;2.07;;;4.60;99.90;;;;;;5013087;28;20213;-80
2022/02/24 07:07:13;;;;;;;5.30;2.20;;;4.60;99.90;;;;;;5009210;28;20346;-81
2022/02/24 07:09:40;;;;;;;2.70;1.83;;;4.60;99.90;;;;;;5013050;28;20233;-80
2022/02/24 07:12:07;;;;;;;3.27;1.97;;;4.60;99.90;;;;;;5006887;28;20213;-80
2022/02/24 07:14:35;;;;;;;3.60;1.90;;;4.70;99.90;;;;;;5007592;28;20809;-80
2022/02/24 07:17:02;;;;;;;2.63;1.77;;;4.70;99.90;;;;;;5012195;28;20294;-80
2022/02/24 07:19:29;;;;;;;3.53;2.00;;;4.60;99.90;;;;;;5021095;28;20209;-80
2022/02/24 07:21:55;;;;;;;3.33;1.93;;;4.70;99.90;;;;;;5018793;28;20243;-80
2022/02/24 07:24:22;;;;;;;3.23;1.97;;;4.60;99.90;;;;;;5005075;28;20213;-80
2022/02/24 07:26:49;;;;;;;3.03;2.10;;;4.60;99.90;;;;;;5013236;28;20470;-80
2022/02/24 07:29:16;;;;;;;2.47;1.90;;;4.70;99.90;;;;;;5024429;28;20268;-80
2022/02/24 07:31:44;;;;;;;3.00;1.80;;;4.80;99.90;;;;;;5014091;28;20228;-79
2022/02/24 07:34:10;;;;;;;2.03;1.77;;;4.70;99.90;;;;;;5011353;28;20206;-79
2022/02/24 07:36:39;;;;;;;5.60;1.97;;;4.80;99.90;;;;;;5015149;28;20209;-80
2022/02/24 07:39:10;;;;;;;3.23;1.97;;;4.90;99.90;;;;;;5012698;28;20719;-80
2022/02/24 07:41:37;;;;;;;3.00;2.00;;;4.90;99.90;;;;;;5008303;28;20206;-80
2022/02/24 07:44:04;;;;;;;2.93;1.80;;;4.90;99.90;;;;;;5005852;28;20650;-80
2022/02/24 07:46:31;;;;;;;2.37;1.80;;;4.90;99.90;;;;;;5007257;28;20210;-80
2022/02/24 07:48:59;;;;;;;2.80;2.00;;;4.90;99.90;;;;;;5007421;28;20270;-80
2022/02/24 07:51:26;;;;;;;2.73;2.00;;;5.00;99.90;;;;;;5003506;28;20210;-80
2022/02/24 07:53:53;;;;;;;3.50;1.83;;;5.00;99.90;;;;;;5003967;28;20210;-81
2022/02/24 07:56:20;;;;;;;4.07;2.27;;;5.00;99.90;;;;;;4999088;28;20233;-80
2022/02/24 07:58:46;;;;;;;4.63;2.00;;;5.00;99.90;;;;;;5005786;28;20789;-80
2022/02/24 08:01:13;;;;;;;4.33;2.00;;;5.00;99.90;;;;;;4998233;28;20213;-80
2022/02/24 08:03:40;;;;;;;3.13;2.07;;;5.00;99.90;;;;;;5002821;28;20218;-80
2022/02/24 08:06:08;;;;;;;2.47;1.80;;;5.10;99.90;;;;;;5006706;28;20272;-79
2022/02/24 08:08:34;;;;;;;2.60;1.87;;;5.20;99.90;;;;;;5013314;28;20655;-79
2022/02/24 08:11:03;;;;;;;2.90;1.87;;;5.20;99.90;;;;;;5006633;28;20250;-80
2022/02/24 08:13:30;;;;;;;3.87;1.90;;;5.10;99.90;;;;;;5006513;28;20692;-80
2022/02/24 08:15:56;;;;;;;3.27;1.60;;;5.20;99.90;;;;;;5013219;28;20210;-80
2022/02/24 08:18:23;;;;;;;1.63;1.53;;;5.30;99.90;;;;;;5006413;28;20689;-79
2022/02/24 08:20:50;;;;;;;4.03;2.00;;;5.40;99.90;;;;;;5014800;28;20679;-80
2022/02/24 08:23:18;;;;;;;6.40;1.80;;;5.40;99.90;;;;;;4999877;28;20342;-80
2022/02/24 08:25:45;;;;;;;5.47;2.00;;;5.40;99.90;;;;;;5016311;28;20212;-80
2022/02/24 08:28:12;;;;;;;4.83;2.20;;;5.30;99.90;;;;;;5001577;28;20206;-80
2022/02/24 08:30:38;;;;;;;3.67;1.93;;;5.40;99.90;;;;;;5009661;27;20229;-80
2022/02/24 08:33:05;;;;;;;3.47;1.90;;;5.40;99.90;;;;;;5003834;28;20637;-80
2022/02/24 08:35:33;;;;;;;2.97;1.80;;;5.50;99.90;;;;;;4999200;28;20238;-80
2022/02/24 08:38:01;;;;;;;4.77;1.80;;;5.50;99.90;;;;;;5010452;28;20211;-80
2022/02/24 08:40:29;;;;;;;2.00;1.67;;;5.50;99.90;;;;;;4998734;28;20296;-80
2022/02/24 08:42:56;;;;;;;2.53;1.90;;;5.60;99.90;;;;;;5007016;28;20221;-81
2022/02/24 08:45:23;;;;;;;5.70;1.93;;;5.60;99.90;;;;;;5005834;28;20209;-80
2022/02/24 08:47:50;;;;;;;2.87;1.87;;;5.60;99.90;;;;;;5004446;28;20682;-80
2022/02/24 08:50:17;;;;;;;2.73;1.60;;;5.60;99.90;;;;;;5007165;28;20265;-79
2022/02/24 08:52:44;;;;;;;4.83;1.70;;;5.60;99.90;;;;;;5010583;28;20209;-80
2022/02/24 08:55:11;;;;;;;2.50;1.83;;;5.60;99.90;;;;;;5005699;28;20229;-80
2022/02/24 08:57:39;;;;;;;3.83;2.20;;;5.70;99.90;;;;;;5002958;28;20255;-80
2022/02/24 09:00:08;;;;;;;2.73;1.83;;;5.80;99.90;;;;;;5013633;28;20220;-79
2022/02/24 09:02:35;;;;;;;2.20;2.00;;;5.90;99.90;;;;;;4998035;28;20211;-79
2022/02/24 09:05:02;;;;;;;6.20;2.10;;;6.00;99.90;;;;;;5016820;28;20205;-80
2022/02/24 09:07:29;;;;;;;3.80;2.00;;;6.00;99.90;;;;;;4999079;28;20807;-80
2022/02/24 09:09:56;;;;;;;3.20;1.70;;;6.10;99.90;;;;;;5015908;28;20229;-80
2022/02/24 09:12:22;;;;;;;3.07;1.87;;;6.10;99.90;;;;;;5007228;28;20213;-80
2022/02/24 09:14:50;;;;;;;3.30;1.97;;;6.20;99.90;;;;;;5003733;28;20280;-80
2022/02/24 09:17:17;;;;;;;3.37;1.60;;;6.20;99.90;;;;;;5005540;28;20318;-80
2022/02/24 09:19:44;;;;;;;4.77;1.87;;;6.30;99.90;;;;;;4999375;28;20855;-80
2022/02/24 09:22:12;;;;;;;5.40;2.23;;;6.30;99.90;;;;;;5004268;28;20209;-79
2022/02/24 09:24:39;;;;;;;2.60;2.07;;;6.40;99.90;;;;;;4997553;28;20245;-82
2022/02/24 09:27:06;;;;;;;3.20;1.80;;;6.40;99.90;;;;;;5010254;28;20486;-81
2022/02/24 09:29:34;;;;;;;1.93;1.70;;;6.50;99.90;;;;;;4998030;28;20230;-81
2022/02/24 09:32:02;;;;;;;5.17;1.73;;;6.50;99.90;;;;;;5015275;28;20209;-82
2022/02/24 09:34:28;;;;;;;4.50;2.20;;;6.60;99.90;;;;;;5007443;28;20209;-80
2022/02/24 09:36:55;;;;;;;2.13;2.00;;;6.60;99.90;;;;;;5007836;28;20210;-82
2022/02/24 09:39:22;;;;;;;2.20;2.00;;;6.80;99.90;;;;;;5009003;28;20239;-82
2022/02/24 09:41:49;;;;;;;2.20;2.10;;;6.80;99.90;;;;;;4999391;28;20212;-81
2022/02/24 09:44:15;;;;;;;3.07;1.80;;;6.90;99.90;;;;;;5019830;28;20314;-82
2022/02/24 09:46:42;;;;;;;2.03;1.83;;;6.90;99.90;;;;;;4999211;28;20209;-82
2022/02/24 09:49:11;;;;;;;4.53;1.70;;;7.00;99.90;;;;;;5006074;28;20209;-82
2022/02/24 09:51:38;;;;;;;3.10;1.70;;;7.00;99.90;;;;;;4998131;28;20546;-82
2022/02/24 09:54:05;;;;;;;6.50;2.13;;;7.00;99.90;;;;;;5007963;28;20205;-81
2022/02/24 09:56:31;;;;;;;2.60;1.90;;;7.00;99.90;;;;;;5005351;28;20262;-81
2022/02/24 09:59:00;;;;;;;2.37;1.83;;;7.10;99.90;;;;;;5002168;28;20198;-81
2022/02/24 10:01:26;;;;;;;4.10;2.07;;;7.20;99.90;;;;;;5013177;28;20305;-82
2022/02/24 10:03:59;;;;;;;4.23;1.87;;;7.20;99.90;;;;;;5001133;28;20669;-81
2022/02/24 10:06:35;;;;;;;3.90;2.00;;;7.20;99.90;;;;;;5012648;28;20202;-81
2022/02/24 10:09:02;;;;;;;2.43;2.00;;;7.20;99.90;;;;;;4994675;28;20213;-78
2022/02/24 10:11:31;;;;;;;3.43;1.77;;;7.20;99.90;;;;;;5015911;28;20240;-79
2022/02/24 10:14:04;;;;;;;2.13;1.97;;;7.20;99.90;;;;;;5001116;28;20676;-78
2022/02/24 10:16:32;;;;;;;3.10;1.90;;;7.10;99.90;;;;;;5014599;28;20220;-78
2022/02/24 10:19:11;;;;;;;2.60;2.00;;;7.10;99.90;;;;;;5011201;28;20581;-78
2022/02/24 10:21:40;;;;;;;5.20;2.13;;;7.20;99.90;;;;;;5008159;28;20646;-78
2022/02/24 10:24:24;;;;;;;3.70;2.03;;;7.20;99.90;;;;;;5028352;28;20565;-79
2022/02/24 10:26:50;;;;;;;3.83;2.03;;;7.20;99.90;;;;;;5001001;28;20460;-80
2022/02/24 10:29:21;;;;;;;5.70;2.20;;;7.30;99.90;;;;;;5016219;28;20664;-80
2022/02/24 10:31:48;;;;;;;5.77;2.90;;;7.30;99.90;;;;;;5013315;28;20232;-80
2022/02/24 10:34:17;;;;;;;2.87;1.90;;;7.30;99.90;;;;;;5026576;28;20209;-80
2022/02/24 10:36:45;;;;;;;5.03;1.80;;;7.30;99.90;;;;;;5025505;28;20498;-80
2022/02/24 10:39:17;;;;;;;3.07;2.20;;;7.30;99.90;;;;;;5006021;28;20210;-79
2022/02/24 10:41:44;;;;;;;2.23;1.90;;;7.30;99.90;;;;;;5020116;28;20758;-79
2022/02/24 10:44:19;;;;;;;2.20;1.93;;;7.30;99.90;;;;;;5019506;28;20852;-80
2022/02/24 10:46:48;;;;;;;2.30;1.97;;;7.40;99.90;;;;;;5023664;28;20221;-80
2022/02/24 10:49:29;;;;;;;3.73;2.23;;;7.40;99.90;;;;;;5011555;28;20706;-80
2022/02/24 10:52:17;;;;;;;3.57;2.20;;;7.40;99.90;;;;;;5013943;28;20209;-80
2022/02/24 10:54:44;;;;;;;4.13;1.93;;;7.40;99.90;;;;;;5018033;28;21033;-79
2022/02/24 10:57:17;;;;;;;5.20;2.10;;;7.50;99.90;;;;;;5007550;28;20246;-80
2022/02/24 10:59:44;;;;;;;5.40;2.40;;;7.50;99.90;;;;;;5010656;28;20298;-80
2022/02/24 11:02:10;;;;;;;2.73;2.43;;;7.50;99.90;;;;;;5011847;28;20206;-81
2022/02/24 11:04:38;;;;;;;1.93;1.67;;;7.50;99.90;;;;;;5007154;28;20210;-80
2022/02/24 11:07:07;;;;;;;6.20;2.60;;;7.40;99.90;;;;;;5004057;28;20209;-80
2022/02/24 11:09:37;;;;;;;4.93;2.27;;;7.40;99.90;;;;;;5017523;28;20201;-81
2022/02/24 11:12:06;;;;;;;2.83;2.30;;;7.40;99.90;;;;;;5005884;28;20217;-81
2022/02/24 11:14:34;;;;;;;3.20;2.10;;;7.40;99.90;;;;;;5009615;28;20216;-81
2022/02/24 11:17:04;;;;;;;2.90;2.03;;;7.30;99.90;;;;;;5003622;28;20229;-80
2022/02/24 11:19:32;;;;;;;4.93;2.30;;;7.40;99.90;;;;;;5010606;28;20672;-80
2022/02/24 11:22:00;;;;;;;3.40;2.40;;;7.40;99.90;;;;;;5006050;28;20210;-81
2022/02/24 11:24:26;;;;;;;3.80;2.10;;;7.40;99.90;;;;;;5006790;28;20214;-79
2022/02/24 11:26:59;;;;;;;2.40;2.10;;;7.40;99.90;;;;;;5008853;28;20205;-80
2022/02/24 11:29:30;;;;;;;4.53;2.30;;;7.50;99.90;;;;;;5003500;28;20209;-79
2022/02/24 11:32:01;;;;;;;4.60;2.00;;;7.50;99.90;;;;;;5018702;28;20209;-79
2022/02/24 11:34:54;;;;;;;4.30;2.30;;;7.50;99.90;;;;;;5009863;28;20218;-80
2022/02/24 11:37:22;;;;;;;3.13;1.97;;;7.50;99.90;;;;;;5000552;28;20575;-79
2022/02/24 11:39:48;;;;;;;2.40;2.20;;;7.50;99.90;;;;;;5013064;28;20676;-80
2022/02/24 11:42:25;;;;;;;3.47;2.30;;;7.50;99.90;;;;;;5006937;28;20302;-80
2022/02/24 11:44:52;;;;;;;5.03;2.57;;;7.50;99.90;;;;;;5006430;28;20258;-80
2022/02/24 11:47:19;;;;;;;3.20;2.40;;;7.50;99.90;;;;;;5020436;28;20206;-80
2022/02/24 11:50:29;;;;;;;3.30;2.00;;;7.50;99.90;;;;;;5046218;28;20201;-80
2022/02/24 11:52:56;;;;;;;2.20;1.90;;;7.50;99.90;;;;;;5017129;28;20216;-80
2022/02/24 11:55:57;;;;;;;3.43;2.33;;;7.50;99.90;;;;;;5003453;28;20276;-80
2022/02/24 11:58:36;;;;;;;3.20;2.20;;;7.50;99.90;;;;;;5014991;28;20202;-80
2022/02/24 12:01:33;;;;;;;3.30;1.90;;;7.50;99.90;;;;;;5010330;28;20263;-80
2022/02/24 12:04:15;;;;;;;3.73;2.10;;;7.60;99.90;;;;;;5004456;27;20221;-79
2022/02/24 12:06:48;;;;;;;3.03;2.43;;;7.60;99.90;;;;;;5019064;28;21021;-80
2022/02/24 12:09:34;;;;;;;3.23;1.97;;;7.60;99.90;;;;;;5000362;28;20270;-79
2022/02/24 12:12:03;;;;;;;2.87;2.10;;;7.60;99.90;;;;;;5004243;28;20721;-80
2022/02/24 12:14:59;;;;;;;2.93;1.90;;;7.60;99.90;;;;;;5007624;28;20282;-80
2022/02/24 12:17:44;;;;;;;2.57;2.00;;;7.60;99.90;;;;;;5001125;28;20214;-80
2022/02/24 12:20:20;;;;;;;3.63;2.10;;;7.70;99.90;;;;;;5011222;28;20716;-80
2022/02/24 12:22:47;;;;;;;3.27;2.00;;;7.60;99.90;;;;;;5003048;28;20263;-80
2022/02/24 12:25:16;;;;;;;4.03;2.20;;;7.60;99.90;;;;;;5009868;28;20676;-80
2022/02/24 12:27:46;;;;;;;3.63;1.90;;;7.60;99.90;;;;;;5016905;28;20216;-79
2022/02/24 12:30:21;;;;;;;2.70;1.97;;;7.60;99.90;;;;;;5003576;28;20233;-80
2022/02/24 12:32:50;;;;;;;4.27;2.10;;;7.70;99.90;;;;;;5019716;28;20387;-79
2022/02/24 12:35:19;;;;;;;4.67;2.00;;;7.80;99.90;;;;;;5004478;28;20309;-79
2022/02/24 12:37:47;;;;;;;1.80;1.70;;;7.70;99.90;;;;;;5020173;28;20209;-80
2022/02/24 12:40:19;;;;;;;2.37;1.80;;;7.80;99.90;;;;;;5000287;28;20213;-80
2022/02/24 12:42:46;;;;;;;3.70;2.13;;;7.90;99.90;;;;;;5052057;28;20229;-80
2022/02/24 12:45:17;;;;;;;2.30;2.00;;;7.90;99.90;;;;;;5008083;28;20206;-80
2022/02/24 12:47:46;;;;;;;4.53;2.10;;;7.90;99.90;;;;;;5042117;28;20209;-81
2022/02/24 12:50:21;;;;;;;2.63;1.70;;;7.90;99.90;;;;;;5011071;28;20214;-79
2022/02/24 12:52:48;;;;;;;2.23;1.80;;;7.90;99.90;;;;;;5004853;28;20593;-80
2022/02/24 12:55:18;;;;;;;5.03;1.80;;;8.00;99.90;;;;;;5009917;28;20229;-80
2022/02/24 12:57:45;;;;;;;3.30;1.80;;;8.10;99.90;;;;;;5002250;28;20218;-80
2022/02/24 13:00:13;;;;;;;3.63;1.90;;;8.10;99.90;;;;;;5007280;28;20209;-79
2022/02/24 13:02:41;;;;;;;3.57;1.90;;;8.10;99.90;;;;;;5009843;28;20297;-80